Time;durP1;ratioP1;P1;durP2;ratioP2;P2;SDS_P1;SDS_P2;PMS_P1;PMS_P2;Temp;Humidity;BMP_temperature;BMP_pressure;BME280_temperature;BME280_humidity;BME280_pressure;Samples;Min_cycle;Max_cycle;Signal;HPM_P1;HPM_P2
2021/12/10 00:00:18;;;;;;;23.80;11.45;;;4.20;99.90;;;;;;5114887;28;20508;-86
2021/12/10 00:02:45;;;;;;;21.67;10.35;;;4.20;99.90;;;;;;5115086;28;20043;-88
2021/12/10 00:05:14;;;;;;;24.33;12.15;;;4.20;99.90;;;;;;5097193;28;20397;-85
2021/12/10 00:07:41;;;;;;;24.58;11.68;;;4.20;99.90;;;;;;5114753;28;20036;-85
2021/12/10 00:10:11;;;;;;;21.83;11.45;;;5.00;99.90;;;;;;5115055;28;20039;-86
2021/12/10 00:12:45;;;;;;;22.30;10.15;;;4.20;99.90;;;;;;5113814;28;20039;-86
2021/12/10 00:15:11;;;;;;;23.63;11.85;;;4.80;99.90;;;;;;5096861;28;20035;-87
2021/12/10 00:17:37;;;;;;;23.33;11.63;;;4.60;99.90;;;;;;5105269;28;20084;-87
2021/12/10 00:20:05;;;;;;;18.58;9.80;;;4.80;99.90;;;;;;5096984;28;20040;-87
2021/12/10 00:22:40;;;;;;;17.30;9.45;;;4.20;99.90;;;;;;5113820;28;20044;-85
2021/12/10 00:25:09;;;;;;;;;;;4.20;99.90;;;;;;5115105;28;20479;-84
2021/12/10 00:27:35;;;;;;;19.90;9.70;;;4.20;99.90;;;;;;5096538;28;20329;-87
2021/12/10 00:30:25;;;;;;;13.65;7.82;;;4.20;99.90;;;;;;5079361;28;20126;-86
2021/12/10 00:33:03;;;;;;;20.70;9.43;;;4.20;99.90;;;;;;5112058;28;20047;-87
2021/12/10 00:35:33;;;;;;;21.30;9.93;;;4.40;99.90;;;;;;5110653;28;20039;-86
2021/12/10 00:37:59;;;;;;;20.20;8.80;;;4.50;99.90;;;;;;5096045;28;20031;-86
2021/12/10 00:40:26;;;;;;;18.48;9.35;;;4.20;99.90;;;;;;5114535;28;20110;-86
2021/12/10 00:42:53;;;;;;;16.27;8.32;;;4.50;99.90;;;;;;5095836;28;20052;-87
2021/12/10 00:45:20;;;;;;;15.80;8.23;;;4.80;99.90;;;;;;5114602;28;20113;-87
2021/12/10 00:47:47;;;;;;;18.70;8.52;;;4.20;99.90;;;;;;5095130;28;20043;-86
2021/12/10 00:50:17;;;;;;;15.13;7.40;;;4.20;99.90;;;;;;5113976;28;20063;-85
2021/12/10 00:52:44;;;;;;;18.67;9.13;;;4.60;99.90;;;;;;5113926;28;20039;-86
2021/12/10 00:55:12;;;;;;;19.55;9.93;;;5.00;99.90;;;;;;5079392;28;20491;-85
2021/12/10 00:57:38;;;;;;;16.55;8.48;;;4.40;99.90;;;;;;5114156;28;20088;-86
2021/12/10 01:00:08;;;;;;;20.58;9.73;;;4.30;99.90;;;;;;5094518;28;20039;-87
2021/12/10 01:02:34;;;;;;;17.90;8.85;;;4.20;99.90;;;;;;5113805;28;20511;-86
2021/12/10 01:05:00;;;;;;;21.27;9.18;;;4.20;99.90;;;;;;5095452;28;20088;-86
2021/12/10 01:07:29;;;;;;;18.58;8.55;;;4.70;99.90;;;;;;5095692;28;20050;-85
2021/12/10 01:09:58;;;;;;;17.10;8.07;;;4.90;99.90;;;;;;5113564;28;20047;-85
2021/12/10 01:12:31;;;;;;;13.63;7.55;;;4.90;99.90;;;;;;5113776;28;20071;-84
2021/12/10 01:15:21;;;;;;;10.93;6.05;;;4.20;99.90;;;;;;5106469;28;20044;-85
2021/12/10 01:23:50;;;;;;;16.90;7.70;;;4.60;99.90;;;;;;5110762;28;20055;-85
2021/12/10 01:29:17;;;;;;;11.20;5.07;;;4.20;99.90;;;;;;5095344;28;20449;-88
2021/12/10 01:31:45;;;;;;;12.20;5.68;;;4.20;99.90;;;;;;5113485;28;20126;-87
2021/12/10 01:34:11;;;;;;;14.30;5.70;;;4.40;99.90;;;;;;5112860;28;20209;-88
2021/12/10 01:36:38;;;;;;;10.75;5.47;;;5.00;99.90;;;;;;5094498;28;20076;-87
2021/12/10 01:39:08;;;;;;;10.48;5.63;;;4.50;99.90;;;;;;5113268;28;20123;-87
2021/12/10 01:41:37;;;;;;;9.38;4.90;;;4.90;99.90;;;;;;5094861;28;20055;-87
2021/12/10 01:44:14;;;;;;;12.40;6.50;;;4.20;99.90;;;;;;5077532;28;20039;-87
2021/12/10 01:46:41;;;;;;;14.63;6.45;;;4.20;99.90;;;;;;5113182;28;20036;-87
2021/12/10 01:49:09;;;;;;;14.90;6.93;;;4.20;99.90;;;;;;5112556;28;20054;-87
2021/12/10 01:51:37;;;;;;;15.57;7.10;;;4.30;99.90;;;;;;5094936;28;20055;-88
2021/12/10 01:54:13;;;;;;;15.07;7.55;;;4.70;99.90;;;;;;5094413;28;20075;-87
2021/12/10 01:56:40;;;;;;;15.55;6.78;;;4.20;99.90;;;;;;5094210;28;20039;-87
2021/12/10 01:59:10;;;;;;;11.15;6.18;;;4.40;99.90;;;;;;5112559;28;20044;-87
2021/12/10 02:01:41;;;;;;;11.82;5.65;;;4.10;99.90;;;;;;5112777;28;20106;-86
2021/12/10 02:04:10;;;;;;;12.63;5.75;;;4.40;99.90;;;;;;5112353;28;20075;-87
2021/12/10 02:06:37;;;;;;;10.43;5.80;;;4.20;99.90;;;;;;5113020;28;20071;-88
2021/12/10 02:09:04;;;;;;;13.73;6.28;;;4.20;99.90;;;;;;5112614;28;20468;-87
2021/12/10 02:11:30;;;;;;;12.38;5.55;;;4.40;99.90;;;;;;5087116;28;20098;-87
2021/12/10 02:13:56;;;;;;;12.18;5.88;;;4.60;99.90;;;;;;5112474;28;20492;-88
2021/12/10 02:16:22;;;;;;;11.45;5.32;;;4.20;99.90;;;;;;5112273;28;20035;-87
2021/12/10 02:18:49;;;;;;;9.75;4.90;;;4.20;99.90;;;;;;5112847;28;20039;-88
2021/12/10 02:21:23;;;;;;;13.50;5.35;;;4.60;99.90;;;;;;5093761;28;20050;-87
2021/12/10 02:23:57;;;;;;;13.90;5.30;;;4.20;99.90;;;;;;5101857;28;20040;-87
2021/12/10 02:26:37;;;;;;;10.38;5.18;;;4.10;99.90;;;;;;5112288;28;20391;-88
2021/12/10 02:29:05;;;;;;;12.70;4.90;;;4.20;99.90;;;;;;5111634;28;20027;-87
2021/12/10 02:31:31;;;;;;;10.85;5.88;;;4.50;99.90;;;;;;5111825;28;20048;-87
2021/12/10 02:33:57;;;;;;;7.90;4.72;;;4.40;99.90;;;;;;5112542;28;20032;-87
2021/12/10 02:36:24;;;;;;;11.90;5.15;;;4.30;99.90;;;;;;5112382;28;20049;-87
2021/12/10 02:38:53;;;;;;;9.82;5.35;;;4.20;99.90;;;;;;5112337;28;20043;-86
2021/12/10 02:41:21;;;;;;;8.07;4.90;;;4.20;99.90;;;;;;5111841;28;20052;-86
2021/12/10 02:43:47;;;;;;;9.50;5.13;;;4.30;99.90;;;;;;5111726;28;20043;-87
2021/12/10 02:46:14;;;;;;;9.20;5.30;;;4.60;99.90;;;;;;5111724;28;20036;-87
2021/12/10 02:48:40;;;;;;;10.55;6.18;;;4.10;99.90;;;;;;5112153;28;20196;-88
2021/12/10 02:51:07;;;;;;;13.48;5.90;;;4.20;99.90;;;;;;5112140;28;20551;-84
2021/12/10 02:53:40;;;;;;;11.82;6.22;;;4.50;99.90;;;;;;5111759;28;20044;-85
2021/12/10 02:56:06;;;;;;;10.50;5.97;;;4.10;99.90;;;;;;5093863;28;20514;-86
2021/12/10 02:58:32;;;;;;;16.58;6.93;;;4.20;99.90;;;;;;5111751;28;20055;-85
2021/12/10 03:01:02;;;;;;;14.52;6.18;;;4.80;99.90;;;;;;5112407;28;20036;-86
2021/12/10 03:03:28;;;;;;;11.63;5.95;;;4.10;99.90;;;;;;5104853;28;20608;-88
2021/12/10 03:05:55;;;;;;;11.98;5.38;;;4.10;99.90;;;;;;5093258;28;20495;-84
2021/12/10 03:08:21;;;;;;;10.38;5.47;;;4.10;99.90;;;;;;5112270;28;20040;-86
2021/12/10 03:10:48;;;;;;;9.25;5.47;;;5.00;99.90;;;;;;5111774;28;20122;-86
2021/12/10 03:13:14;;;;;;;11.30;5.57;;;4.90;99.90;;;;;;5087258;28;20036;-85
2021/12/10 03:15:41;;;;;;;10.75;6.13;;;4.20;99.90;;;;;;5111799;28;20123;-85
2021/12/10 03:18:10;;;;;;;9.02;4.97;;;4.10;99.90;;;;;;5094119;28;20044;-82
2021/12/10 03:20:38;;;;;;;12.30;5.78;;;4.10;99.90;;;;;;5093541;28;20463;-83
2021/12/10 03:23:05;;;;;;;13.02;6.75;;;4.30;99.90;;;;;;5105861;28;20036;-83
2021/12/10 03:25:32;;;;;;;10.00;6.20;;;4.70;99.90;;;;;;5115651;28;20082;-85
2021/12/10 03:27:58;;;;;;;10.90;5.75;;;4.70;99.90;;;;;;5115904;28;20391;-86
2021/12/10 03:30:29;;;;;;;11.13;5.47;;;4.10;99.90;;;;;;5116094;28;20032;-84
2021/12/10 03:32:55;;;;;;;11.07;5.47;;;4.10;99.90;;;;;;5077075;28;20369;-83
2021/12/10 03:35:28;;;;;;;9.77;5.28;;;4.10;99.90;;;;;;5107850;28;20040;-86
2021/12/10 03:37:54;;;;;;;9.30;4.78;;;4.10;99.90;;;;;;5115465;28;20040;-88
2021/12/10 03:40:20;;;;;;;11.45;5.93;;;4.50;99.90;;;;;;5115740;28;20488;-87
2021/12/10 03:42:48;;;;;;;13.02;5.78;;;4.00;99.90;;;;;;5114808;28;20051;-86
2021/12/10 03:45:15;;;;;;;9.43;5.18;;;4.60;99.90;;;;;;5097445;28;20522;-87
2021/12/10 03:47:42;;;;;;;8.25;5.05;;;4.10;99.90;;;;;;5096837;28;20043;-88
2021/12/10 03:50:10;;;;;;;9.65;4.60;;;4.10;99.90;;;;;;5115382;28;20039;-88
2021/12/10 03:52:35;;;;;;;8.70;4.80;;;4.10;99.90;;;;;;5114847;28;20499;-84
2021/12/10 03:55:04;;;;;;;15.25;5.93;;;4.10;99.90;;;;;;5114668;28;20128;-86
2021/12/10 03:57:29;;;;;;;12.18;4.57;;;4.10;99.90;;;;;;5114883;28;20035;-87
2021/12/10 03:59:55;;;;;;;9.57;4.78;;;4.10;99.90;;;;;;5115009;28;20046;-87
2021/12/10 04:02:21;;;;;;;10.18;5.22;;;4.00;99.90;;;;;;5115562;28;20071;-86
2021/12/10 04:04:49;;;;;;;11.43;5.53;;;4.40;99.90;;;;;;5114708;28;20440;-88
2021/12/10 04:07:22;;;;;;;10.98;5.68;;;4.50;99.90;;;;;;5115051;28;20031;-86
2021/12/10 04:09:49;;;;;;;9.23;5.50;;;4.80;99.90;;;;;;5113430;28;20032;-85
2021/12/10 04:12:17;;;;;;;13.20;5.63;;;4.60;99.90;;;;;;5114648;28;20046;-88
2021/12/10 04:14:44;;;;;;;13.40;6.53;;;4.90;99.90;;;;;;5115010;28;20400;-88
2021/12/10 04:17:10;;;;;;;10.05;5.10;;;4.30;99.90;;;;;;5114463;28;20044;-89
2021/12/10 04:19:37;;;;;;;12.20;6.53;;;4.00;99.90;;;;;;5115102;28;20096;-89
2021/12/10 04:22:06;;;;;;;11.90;5.65;;;4.00;99.90;;;;;;5114069;28;20055;-89
2021/12/10 04:24:34;;;;;;;8.93;4.63;;;4.00;99.90;;;;;;5096851;28;20043;-89
2021/12/10 04:27:01;;;;;;;9.07;4.20;;;4.00;99.90;;;;;;5107706;28;20035;-88
2021/12/10 04:29:27;;;;;;;8.45;4.30;;;4.00;99.90;;;;;;5114766;28;20044;-88
2021/12/10 04:31:56;;;;;;;12.23;4.60;;;4.00;99.90;;;;;;5113461;28;20048;-88
2021/12/10 04:34:23;;;;;;;7.10;3.60;;;4.00;99.90;;;;;;5096869;28;20483;-88
2021/12/10 04:36:50;;;;;;;8.45;4.45;;;4.30;99.90;;;;;;5114539;28;20118;-86
2021/12/10 04:39:15;;;;;;;12.55;6.57;;;4.00;99.90;;;;;;5113534;28;20054;-88
2021/12/10 04:41:41;;;;;;;11.98;5.97;;;4.00;99.90;;;;;;5114347;28;20059;-87
2021/12/10 04:44:07;;;;;;;11.27;5.57;;;3.80;99.90;;;;;;5114241;28;20040;-86
2021/12/10 04:46:34;;;;;;;9.20;5.25;;;4.00;99.90;;;;;;5095263;28;20051;-86
2021/12/10 04:49:06;;;;;;;11.02;6.13;;;4.00;99.90;;;;;;5113963;28;20043;-87
2021/12/10 04:51:39;;;;;;;11.25;5.32;;;3.50;99.90;;;;;;5113709;28;20122;-85
2021/12/10 04:54:06;;;;;;;16.25;8.98;;;4.00;99.90;;;;;;5113832;28;20043;-87
2021/12/10 04:56:32;;;;;;;16.38;7.75;;;3.90;99.90;;;;;;5107394;28;20040;-87
2021/12/10 04:59:04;;;;;;;10.48;6.10;;;4.40;99.90;;;;;;5113823;28;20044;-86
2021/12/10 05:01:30;;;;;;;13.02;7.22;;;3.90;99.90;;;;;;5096689;28;20050;-86
2021/12/10 05:03:56;;;;;;;15.32;8.98;;;3.90;99.90;;;;;;5113936;28;20039;-86
2021/12/10 05:06:22;;;;;;;15.77;8.55;;;5.00;99.90;;;;;;5111697;28;20048;-87
2021/12/10 05:08:48;;;;;;;17.20;9.75;;;4.50;99.90;;;;;;5113800;28;20046;-87
2021/12/10 05:11:14;;;;;;;16.15;8.10;;;3.90;99.90;;;;;;5095862;28;20051;-85
2021/12/10 05:13:43;;;;;;;11.00;7.63;;;4.50;99.90;;;;;;5114021;28;20621;-87
2021/12/10 05:16:10;;;;;;;13.52;8.18;;;4.20;99.90;;;;;;5113227;28;20506;-86
2021/12/10 05:18:40;;;;;;;18.73;10.32;;;4.40;99.90;;;;;;5113932;28;20046;-87
2021/12/10 05:21:08;;;;;;;18.85;10.00;;;4.40;99.90;;;;;;5112974;28;20051;-86
2021/12/10 05:23:34;;;;;;;15.95;8.77;;;4.90;99.90;;;;;;5096156;28;20094;-88
2021/12/10 05:26:00;;;;;;;15.50;9.20;;;4.90;99.90;;;;;;5089290;28;20067;-87
2021/12/10 05:28:26;;;;;;;16.20;8.50;;;4.00;99.90;;;;;;5113180;28;20089;-88
2021/12/10 05:30:55;;;;;;;12.63;7.72;;;4.00;99.90;;;;;;5113683;28;20050;-87
2021/12/10 05:33:22;;;;;;;14.02;8.30;;;3.30;99.90;;;;;;5113324;28;20567;-86
2021/12/10 05:35:49;;;;;;;14.77;8.05;;;3.20;99.90;;;;;;5101288;28;20036;-87
2021/12/10 05:38:17;;;;;;;16.27;8.60;;;3.60;99.90;;;;;;5111046;28;20480;-88
2021/12/10 05:40:48;;;;;;;12.48;7.47;;;3.30;99.90;;;;;;5112705;28;20047;-86
2021/12/10 05:43:15;;;;;;;12.60;7.53;;;3.10;99.90;;;;;;5113061;28;20036;-88
2021/12/10 05:45:41;;;;;;;13.82;7.53;;;3.70;99.90;;;;;;5112506;28;20051;-87
2021/12/10 05:48:07;;;;;;;16.85;8.23;;;3.70;99.90;;;;;;5113397;28;20039;-86
2021/12/10 05:50:33;;;;;;;15.27;8.32;;;3.10;99.90;;;;;;5077846;28;20101;-86
2021/12/10 05:52:59;;;;;;;14.27;7.25;;;2.80;99.90;;;;;;5113222;28;20096;-86
2021/12/10 05:55:26;;;;;;;12.80;7.50;;;3.10;99.90;;;;;;5112593;28;20392;-86
2021/12/10 05:57:52;;;;;;;9.98;6.60;;;3.00;99.90;;;;;;5092259;28;20031;-87
2021/12/10 06:00:29;;;;;;;13.98;7.60;;;3.50;99.90;;;;;;5112467;28;20047;-83
2021/12/10 06:02:55;;;;;;;10.95;6.35;;;3.00;99.90;;;;;;5095034;28;20093;-86
2021/12/10 06:05:22;;;;;;;11.38;6.15;;;3.30;99.90;;;;;;5111568;28;20043;-86
2021/12/10 06:07:49;;;;;;;19.38;7.50;;;2.40;99.90;;;;;;5112430;28;20036;-87
2021/12/10 06:10:17;;;;;;;16.30;8.30;;;2.70;99.90;;;;;;5112695;28;20096;-86
2021/12/10 06:12:44;;;;;;;12.07;6.82;;;2.40;99.90;;;;;;5086892;28;20039;-87
2021/12/10 06:15:11;;;;;;;12.45;7.38;;;2.30;99.90;;;;;;5111884;28;20036;-87
2021/12/10 06:17:37;;;;;;;14.90;7.60;;;2.30;99.90;;;;;;5087532;28;20044;-86
2021/12/10 06:20:08;;;;;;;14.90;7.82;;;3.10;99.90;;;;;;5094678;28;20043;-87
2021/12/10 06:22:34;;;;;;;14.82;8.27;;;2.20;99.90;;;;;;5094037;28;20047;-87
2021/12/10 06:25:00;;;;;;;16.55;7.72;;;2.20;99.90;;;;;;5112894;28;20035;-86
2021/12/10 06:27:25;;;;;;;17.30;8.02;;;2.20;99.90;;;;;;5105284;28;20502;-87
2021/12/10 06:29:51;;;;;;;17.02;9.13;;;2.20;99.90;;;;;;5112487;28;20523;-87
2021/12/10 06:32:17;;;;;;;19.75;10.52;;;3.00;99.90;;;;;;5112391;28;20491;-87
2021/12/10 06:34:43;;;;;;;20.70;9.95;;;2.80;99.90;;;;;;5077217;28;20051;-87
2021/12/10 06:37:09;;;;;;;19.17;10.27;;;2.50;99.90;;;;;;5105856;28;20074;-87
2021/12/10 06:39:35;;;;;;;16.33;8.93;;;2.30;99.90;;;;;;5111993;28;20035;-87
2021/12/10 06:42:02;;;;;;;16.55;8.88;;;2.30;99.90;;;;;;5112227;28;20457;-87
2021/12/10 06:44:29;;;;;;;19.65;9.30;;;2.90;99.90;;;;;;5077225;28;20035;-86
2021/12/10 06:46:55;;;;;;;17.63;9.52;;;2.30;99.90;;;;;;5097472;28;20047;-85
2021/12/10 06:49:21;;;;;;;22.13;10.90;;;2.40;99.90;;;;;;5112328;28;20040;-88
2021/12/10 06:51:46;;;;;;;16.17;9.15;;;2.40;99.90;;;;;;5111838;28;20048;-87
2021/12/10 06:54:12;;;;;;;16.02;8.23;;;2.50;99.90;;;;;;5111724;28;20377;-87
2021/12/10 06:56:39;;;;;;;16.15;8.38;;;2.50;99.90;;;;;;5105175;28;20047;-87
2021/12/10 06:59:07;;;;;;;13.80;7.88;;;2.60;99.90;;;;;;5115505;28;20570;-85
2021/12/10 07:01:36;;;;;;;15.27;8.30;;;3.40;99.90;;;;;;5098317;28;20429;-86
2021/12/10 07:04:04;;;;;;;15.50;7.82;;;2.60;99.90;;;;;;5105383;28;20044;-87
2021/12/10 07:06:31;;;;;;;15.15;7.97;;;2.60;99.90;;;;;;5116577;28;20028;-87
2021/12/10 07:09:01;;;;;;;14.82;9.25;;;2.60;99.90;;;;;;5116441;28;20511;-84
2021/12/10 07:11:27;;;;;;;18.15;8.80;;;2.60;99.90;;;;;;5097170;28;20487;-90
2021/12/10 07:13:58;;;;;;;14.60;8.60;;;2.60;99.90;;;;;;5116130;28;20047;-89
2021/12/10 07:16:26;;;;;;;18.48;7.80;;;3.70;99.90;;;;;;5116341;28;20036;-84
2021/12/10 07:18:53;;;;;;;13.30;7.57;;;2.20;99.90;;;;;;5097924;28;20047;-84
2021/12/10 07:21:19;;;;;;;13.48;7.95;;;2.50;99.90;;;;;;5115749;28;20392;-85
2021/12/10 07:23:45;;;;;;;12.48;6.45;;;2.40;99.90;;;;;;5097369;28;20058;-85
2021/12/10 07:26:12;;;;;;;14.82;7.43;;;2.30;99.90;;;;;;5115976;28;20031;-82
2021/12/10 07:28:38;;;;;;;13.00;7.40;;;3.60;99.90;;;;;;5116025;28;20035;-84
2021/12/10 07:31:05;;;;;;;11.18;6.28;;;2.30;99.90;;;;;;5115284;28;20119;-84
2021/12/10 07:33:31;;;;;;;12.27;7.15;;;2.60;99.90;;;;;;5115445;28;20039;-86
2021/12/10 07:35:57;;;;;;;11.32;6.57;;;2.20;99.90;;;;;;5115733;28;20050;-86
2021/12/10 07:38:22;;;;;;;10.25;5.40;;;3.00;99.90;;;;;;5096887;28;20040;-84
2021/12/10 07:40:49;;;;;;;10.27;5.75;;;2.10;99.90;;;;;;5096688;28;20047;-82
2021/12/10 07:43:15;;;;;;;9.93;5.75;;;1.50;99.90;;;;;;5115428;28;20116;-83
2021/12/10 07:45:46;;;;;;;10.23;5.65;;;2.00;99.90;;;;;;5097618;28;20062;-83
2021/12/10 07:48:14;;;;;;;11.43;6.28;;;2.50;99.90;;;;;;5115352;28;20127;-85
2021/12/10 07:50:44;;;;;;;9.40;5.63;;;2.10;99.90;;;;;;5096922;28;20487;-84
2021/12/10 07:53:10;;;;;;;10.52;5.70;;;1.90;99.90;;;;;;5097359;28;20052;-85
2021/12/10 07:55:38;;;;;;;12.25;5.93;;;2.30;99.90;;;;;;5116039;28;20050;-86
2021/12/10 07:58:06;;;;;;;10.75;5.70;;;1.80;99.90;;;;;;5114938;28;20035;-88
2021/12/10 08:00:34;;;;;;;9.60;5.20;;;1.40;99.90;;;;;;5097208;28;20107;-88
2021/12/10 08:03:00;;;;;;;8.13;4.60;;;1.70;99.90;;;;;;5096931;28;20054;-85
2021/12/10 08:05:28;;;;;;;9.23;5.20;;;2.50;99.90;;;;;;5115124;28;20395;-91
2021/12/10 08:07:55;;;;;;;8.95;5.10;;;1.60;99.90;;;;;;5096722;28;20056;-87
2021/12/10 08:10:22;;;;;;;10.05;5.63;;;1.40;99.90;;;;;;5096312;28;20048;-85
2021/12/10 08:12:48;;;;;;;8.27;4.28;;;1.70;99.90;;;;;;5115215;28;20126;-87
2021/12/10 08:15:14;;;;;;;8.60;5.00;;;1.80;99.90;;;;;;5113669;28;20406;-84
2021/12/10 08:17:42;;;;;;;7.63;4.65;;;1.70;99.90;;;;;;5109603;28;20139;-83
2021/12/10 08:20:10;;;;;;;11.90;5.43;;;1.60;99.90;;;;;;5112574;28;20036;-86
2021/12/10 08:22:36;;;;;;;9.38;4.88;;;1.60;99.90;;;;;;5109715;28;20097;-87
2021/12/10 08:25:03;;;;;;;9.15;4.72;;;1.60;99.90;;;;;;5093236;28;20039;-88
2021/12/10 08:27:28;;;;;;;9.70;4.68;;;1.60;99.90;;;;;;5107685;28;20051;-86
2021/12/10 08:29:54;;;;;;;7.55;4.55;;;2.20;99.90;;;;;;5114598;28;20472;-87
2021/12/10 08:32:21;;;;;;;5.82;3.30;;;1.60;99.90;;;;;;5096434;28;20130;-85
2021/12/10 08:34:48;;;;;;;7.35;3.92;;;2.10;99.90;;;;;;5096385;28;20047;-87
2021/12/10 08:37:14;;;;;;;8.48;3.92;;;1.10;99.90;;;;;;5096187;28;20047;-85
2021/12/10 08:39:41;;;;;;;7.22;3.88;;;2.80;99.90;;;;;;5096691;28;20051;-87
2021/12/10 08:42:07;;;;;;;6.80;4.30;;;1.50;99.90;;;;;;5096234;28;20063;-84
2021/12/10 08:44:33;;;;;;;9.15;4.00;;;1.50;99.90;;;;;;5114117;28;20415;-85
2021/12/10 08:47:00;;;;;;;7.80;4.10;;;2.00;99.90;;;;;;5114240;28;20114;-84
2021/12/10 08:49:27;;;;;;;6.28;3.47;;;1.50;99.90;;;;;;5095966;28;20039;-86
2021/12/10 08:51:56;;;;;;;7.22;3.15;;;2.10;99.90;;;;;;5096088;28;20059;-85
2021/12/10 08:54:26;;;;;;;8.48;4.25;;;1.60;99.90;;;;;;5114389;28;20043;-84
2021/12/10 08:56:52;;;;;;;6.05;3.50;;;1.10;99.90;;;;;;5096666;28;20126;-85
2021/12/10 08:59:21;;;;;;;9.10;4.30;;;1.90;99.90;;;;;;5106720;28;20123;-84
2021/12/10 09:01:50;;;;;;;6.53;4.07;;;1.50;99.90;;;;;;5095579;28;20100;-85
2021/12/10 09:04:15;;;;;;;8.75;4.05;;;1.90;99.90;;;;;;5095699;28;20050;-85
2021/12/10 09:06:47;;;;;;;9.35;4.30;;;2.90;99.90;;;;;;5088011;28;20403;-87
2021/12/10 09:09:14;;;;;;;7.00;3.97;;;1.90;99.90;;;;;;5114089;28;20118;-88
2021/12/10 09:11:44;;;;;;;7.65;3.75;;;2.00;99.90;;;;;;5113725;28;20039;-87
2021/12/10 09:14:10;;;;;;;6.55;3.70;;;2.20;99.90;;;;;;5113880;28;20039;-85
2021/12/10 09:16:37;;;;;;;9.18;4.25;;;2.20;99.90;;;;;;5113504;28;20047;-87
2021/12/10 09:19:09;;;;;;;8.23;4.35;;;2.20;99.90;;;;;;5110600;28;20032;-86
2021/12/10 09:21:35;;;;;;;7.13;3.63;;;2.20;99.90;;;;;;5112385;28;20035;-87
2021/12/10 09:24:05;;;;;;;5.72;3.42;;;2.20;99.90;;;;;;5113796;28;20039;-87
2021/12/10 09:26:35;;;;;;;6.57;3.50;;;2.30;99.90;;;;;;5077832;28;20044;-86
2021/12/10 09:29:04;;;;;;;6.05;3.38;;;2.30;99.90;;;;;;5095256;28;20048;-83
2021/12/10 09:31:30;;;;;;;5.63;3.00;;;2.30;99.90;;;;;;5113101;28;20047;-88
2021/12/10 09:33:57;;;;;;;6.70;3.85;;;2.60;99.90;;;;;;5095345;28;20040;-87
2021/12/10 09:36:25;;;;;;;5.50;3.28;;;2.40;99.90;;;;;;5113464;28;20055;-86
2021/12/10 09:38:50;;;;;;;7.20;3.38;;;2.50;99.90;;;;;;5105553;28;20538;-88
2021/12/10 09:41:17;;;;;;;6.03;3.58;;;2.50;99.90;;;;;;5115456;28;20043;-88
2021/12/10 09:43:43;;;;;;;6.03;3.15;;;2.50;99.90;;;;;;5115820;28;20052;-88
2021/12/10 09:46:11;;;;;;;6.05;3.20;;;2.60;99.90;;;;;;5117759;28;20043;-85
2021/12/10 09:48:38;;;;;;;5.90;3.47;;;2.60;99.90;;;;;;5113260;28;20118;-89
2021/12/10 09:51:10;;;;;;;5.90;3.17;;;2.60;99.90;;;;;;5113187;28;20047;-85
2021/12/10 09:53:37;;;;;;;6.43;3.10;;;2.60;99.90;;;;;;5094704;28;20054;-84
2021/12/10 09:56:04;;;;;;;7.95;3.38;;;2.60;99.90;;;;;;5094640;28;20067;-85
2021/12/10 10:05:43;;;;;;;7.80;4.00;;;2.80;99.90;;;;;;5109781;28;20574;-85
2021/12/10 10:08:21;;;;;;;9.35;5.05;;;3.40;99.90;;;;;;5112940;28;20141;-83
2021/12/10 10:10:50;;;;;;;9.18;4.90;;;2.90;99.90;;;;;;5113747;28;20453;-85
2021/12/10 10:13:20;;;;;;;12.00;5.78;;;3.00;99.90;;;;;;5095288;28;20052;-86
2021/12/10 10:15:49;;;;;;;13.15;5.85;;;3.10;99.90;;;;;;5113417;28;20076;-87
2021/12/10 10:18:16;;;;;;;10.77;5.15;;;3.20;99.90;;;;;;5113668;28;20043;-85
2021/12/10 10:20:51;;;;;;;6.50;4.05;;;4.00;99.90;;;;;;5095355;28;20066;-87
2021/12/10 10:23:18;;;;;;;9.95;5.95;;;3.30;99.90;;;;;;5094951;28;20046;-85
2021/12/10 10:25:49;;;;;;;12.02;5.95;;;3.40;99.90;;;;;;5078600;28;20047;-83
2021/12/10 10:28:16;;;;;;;8.88;5.10;;;3.50;99.90;;;;;;5113894;28;20043;-86
2021/12/10 10:30:53;;;;;;;8.90;4.68;;;3.80;99.90;;;;;;5113272;28;20403;-85
2021/12/10 10:33:20;;;;;;;11.23;4.82;;;3.60;99.90;;;;;;5113305;28;20084;-84
2021/12/10 10:35:50;;;;;;;10.32;5.82;;;4.10;99.90;;;;;;5113404;28;20403;-84
2021/12/10 10:38:16;;;;;;;7.70;4.55;;;3.70;99.90;;;;;;5113412;28;20123;-87
2021/12/10 10:40:46;;;;;;;9.55;5.07;;;3.70;99.90;;;;;;5113299;28;20581;-82
2021/12/10 10:43:13;;;;;;;8.30;3.92;;;3.80;99.90;;;;;;5094509;28;20056;-86
2021/12/10 10:45:42;;;;;;;8.10;4.60;;;3.80;99.90;;;;;;5113212;28;20036;-85
2021/12/10 10:48:11;;;;;;;9.88;4.72;;;4.50;99.90;;;;;;5112945;28;20432;-85
2021/12/10 10:50:46;;;;;;;7.70;4.78;;;4.70;99.90;;;;;;5112942;28;20055;-85
2021/12/10 10:53:14;;;;;;;8.75;4.10;;;4.00;99.90;;;;;;5112752;28;20100;-85
2021/12/10 10:56:05;;;;;;;9.70;3.90;;;4.40;99.90;;;;;;5112898;28;20043;-84
2021/12/10 10:58:42;;;;;;;8.55;3.88;;;4.10;99.90;;;;;;5112975;28;20048;-84
2021/12/10 11:01:24;;;;;;;5.85;2.67;;;4.10;99.90;;;;;;5112939;28;20058;-87
2021/12/10 11:03:56;;;;;;;7.35;3.72;;;4.40;99.90;;;;;;5094903;28;20104;-85
2021/12/10 11:06:33;;;;;;;5.85;3.22;;;4.20;99.90;;;;;;5112713;28;20548;-87
2021/12/10 11:09:22;;;;;;;8.52;4.45;;;4.30;99.90;;;;;;5113099;28;20506;-84
2021/12/10 11:11:55;;;;;;;7.43;3.58;;;4.40;99.90;;;;;;5112828;28;20059;-84
2021/12/10 11:14:25;;;;;;;5.00;2.97;;;4.70;99.90;;;;;;5112880;28;20054;-85
2021/12/10 11:16:54;;;;;;;8.45;4.30;;;5.60;99.90;;;;;;5112662;28;20055;-85
2021/12/10 11:19:27;;;;;;;8.77;4.80;;;4.50;99.90;;;;;;5110525;28;20043;-83
2021/12/10 11:22:01;;;;;;;11.95;6.00;;;4.30;99.90;;;;;;5112689;28;20048;-86
2021/12/10 11:27:19;;;;;;;6.93;3.30;;;4.60;99.90;;;;;;5120601;22;20047;-83
2021/12/10 11:29:48;;;;;;;6.90;3.70;;;4.70;99.90;;;;;;5112747;28;20051;-84
2021/12/10 11:32:27;;;;;;;6.57;3.28;;;4.70;99.90;;;;;;5093693;28;20050;-84
2021/12/10 11:35:05;;;;;;;5.82;3.33;;;5.00;99.90;;;;;;5112751;28;20043;-82
2021/12/10 11:37:56;;;;;;;7.78;3.00;;;4.70;99.90;;;;;;5094382;28;20105;-83
2021/12/10 11:40:42;;;;;;;4.90;2.78;;;4.70;99.90;;;;;;5093648;28;20048;-83
2021/12/10 11:43:19;;;;;;;4.95;2.40;;;4.70;99.90;;;;;;5092911;28;20514;-82
2021/12/10 11:45:52;;;;;;;7.28;3.30;;;5.10;99.90;;;;;;5098220;28;20059;-82
2021/12/10 11:48:26;;;;;;;6.80;2.55;;;4.10;99.90;;;;;;5116564;28;20035;-83
2021/12/10 11:51:16;;;;;;;5.47;3.15;;;4.80;99.90;;;;;;5116312;28;20130;-82
2021/12/10 11:54:00;;;;;;;6.00;2.47;;;4.90;99.90;;;;;;5116246;28;20043;-83
2021/12/10 11:56:49;;;;;;;6.95;3.10;;;5.50;99.90;;;;;;5097203;28;20047;-83
2021/12/10 11:59:29;;;;;;;5.47;2.97;;;5.20;99.90;;;;;;5036716;28;20417;-83
2021/12/10 12:02:03;;;;;;;5.07;2.95;;;4.60;99.90;;;;;;5053255;28;20049;-83
2021/12/10 12:04:29;;;;;;;5.72;2.78;;;5.00;99.90;;;;;;5053190;28;20449;-83
2021/12/10 12:07:26;;;;;;;6.63;3.00;;;5.40;99.90;;;;;;5048562;28;20045;-83
2021/12/10 12:10:02;;;;;;;5.97;2.47;;;4.60;99.90;;;;;;5032555;28;20049;-82
2021/12/10 12:12:29;;;;;;;;;;;4.60;99.90;;;;;;5017184;28;20050;-82
2021/12/10 12:15:11;;;;;;;5.47;3.17;;;4.90;99.90;;;;;;5033039;28;19967;-82
2021/12/10 12:17:44;;;;;;;4.40;2.17;;;5.10;99.90;;;;;;5016601;28;20057;-82
2021/12/10 12:20:22;;;;;;;4.90;2.53;;;5.40;99.90;;;;;;5016376;28;20048;-83
2021/12/10 12:25:41;;;;;;;5.55;2.90;;;5.40;99.90;;;;;;5044064;28;20056;-84
2021/12/10 12:28:11;;;;;;;5.32;2.83;;;5.20;99.90;;;;;;5034941;28;20060;-81
2021/12/10 12:31:00;;;;;;;6.22;2.70;;;5.10;99.90;;;;;;5019175;28;20936;-83
2021/12/10 12:33:29;;;;;;;8.57;3.35;;;4.80;99.90;;;;;;5050113;28;20045;-84
2021/12/10 12:35:56;;;;;;;5.25;3.10;;;5.30;99.90;;;;;;5070275;28;20103;-83
2021/12/10 12:38:27;;;;;;;4.95;2.88;;;4.50;99.90;;;;;;5109920;28;20177;-83
2021/12/10 12:41:08;;;;;;;6.22;3.35;;;4.80;99.90;;;;;;5112253;28;20107;-84
2021/12/10 12:43:35;;;;;;;6.20;3.17;;;4.60;99.90;;;;;;5101209;28;20081;-84
2021/12/10 12:46:09;;;;;;;7.38;2.95;;;5.40;99.90;;;;;;5102269;28;20047;-82
2021/12/10 12:48:37;;;;;;;7.47;3.00;;;4.70;99.90;;;;;;5114592;28;20563;-83
2021/12/10 12:51:17;;;;;;;6.30;3.17;;;3.50;99.90;;;;;;5113971;28;20111;-84
2021/12/10 12:53:43;;;;;;;6.20;3.05;;;4.80;99.90;;;;;;5104872;28;20396;-83
2021/12/10 12:56:14;;;;;;;9.25;3.60;;;4.60;99.90;;;;;;5082545;28;20550;-84
2021/12/10 12:59:05;;;;;;;8.77;3.65;;;4.40;99.90;;;;;;5110743;28;20054;-84
2021/12/10 13:01:48;;;;;;;5.88;3.42;;;4.60;99.90;;;;;;5014458;28;20220;-84
2021/12/10 13:04:19;;;;;;;6.88;3.15;;;4.80;99.90;;;;;;5014647;28;20037;-84
2021/12/10 13:06:58;;;;;;;5.40;2.92;;;4.20;99.90;;;;;;5013059;28;20057;-84
2021/12/10 13:09:46;;;;;;;6.68;2.80;;;4.20;99.90;;;;;;5029247;28;20039;-85
2021/12/10 13:15:04;;;;;;;5.10;2.83;;;4.10;99.90;;;;;;5019911;28;20045;-83
2021/12/10 13:17:35;;;;;;;6.70;3.80;;;4.60;99.90;;;;;;5013920;28;20049;-83
2021/12/10 13:20:04;;;;;;;8.40;4.68;;;3.80;99.90;;;;;;5013994;28;20049;-82
2021/12/10 13:22:35;;;;;;;6.65;4.72;;;4.00;99.90;;;;;;5031194;28;20052;-84
2021/12/10 13:25:09;;;;;;;10.73;6.05;;;4.40;99.90;;;;;;5030171;28;20058;-83